Time;durP1;ratioP1;P1;durP2;ratioP2;P2;SDS_P1;SDS_P2;PMS_P1;PMS_P2;Temp;Humidity;BMP_temperature;BMP_pressure;BME280_temperature;BME280_humidity;BME280_pressure;Samples;Min_cycle;Max_cycle;Signal;HPM_P1;HPM_P2
2022/03/13 00:00:46;;;;;;;18.33;12.32;;;7.10;99.90;;;;;;5052875;28;20120;-71
2022/03/13 00:03:14;;;;;;;17.92;12.93;;;7.10;99.90;;;;;;5036197;28;20049;-70
2022/03/13 00:05:42;;;;;;;17.48;12.77;;;7.00;99.90;;;;;;5052514;28;20033;-71
2022/03/13 00:08:23;;;;;;;18.73;12.63;;;7.00;99.90;;;;;;5052604;28;20148;-71
2022/03/13 00:11:03;;;;;;;20.50;14.10;;;7.00;99.90;;;;;;5052334;28;20041;-71
2022/03/13 00:13:38;;;;;;;19.92;14.18;;;6.90;99.90;;;;;;5052427;28;20046;-71
2022/03/13 00:16:08;;;;;;;20.88;13.95;;;7.20;99.90;;;;;;5052781;28;20090;-71
2022/03/13 00:18:35;;;;;;;22.75;13.57;;;6.80;99.90;;;;;;5052156;28;20076;-70
2022/03/13 00:21:04;;;;;;;22.40;13.63;;;6.80;99.90;;;;;;5052219;28;20439;-71
2022/03/13 00:23:34;;;;;;;18.27;13.23;;;6.70;99.90;;;;;;5052173;28;20049;-70
2022/03/13 00:26:01;;;;;;;19.02;12.80;;;6.60;99.90;;;;;;5052111;28;20044;-70
2022/03/13 00:28:27;;;;;;;19.13;13.63;;;6.60;99.90;;;;;;5035896;28;20128;-71
2022/03/13 00:30:52;;;;;;;17.98;13.40;;;7.00;99.90;;;;;;5051678;28;20128;-71
2022/03/13 00:33:20;;;;;;;21.75;14.23;;;6.50;99.90;;;;;;5018273;28;20106;-71
2022/03/13 00:35:46;;;;;;;19.45;15.20;;;6.50;99.90;;;;;;5052510;28;20500;-71
2022/03/13 00:38:12;;;;;;;20.73;14.07;;;6.40;99.90;;;;;;5051898;28;20040;-71
2022/03/13 00:40:39;;;;;;;22.65;14.85;;;6.40;99.90;;;;;;5035358;28;20044;-71
2022/03/13 00:43:07;;;;;;;22.83;14.75;;;6.40;99.90;;;;;;5035566;28;20045;-71
2022/03/13 00:45:33;;;;;;;20.65;15.13;;;6.30;99.90;;;;;;5035571;28;20087;-71
2022/03/13 00:47:59;;;;;;;24.77;16.55;;;6.30;99.90;;;;;;5051683;28;20098;-71
2022/03/13 00:50:26;;;;;;;22.83;14.25;;;6.30;99.90;;;;;;5035293;28;20048;-70
2022/03/13 00:52:52;;;;;;;21.25;14.95;;;6.30;99.90;;;;;;5034952;28;20040;-70
2022/03/13 00:55:19;;;;;;;20.60;14.00;;;6.30;99.90;;;;;;5051797;28;20041;-70
2022/03/13 00:57:45;;;;;;;20.77;14.43;;;6.30;99.90;;;;;;5051679;28;20063;-70
2022/03/13 01:00:11;;;;;;;22.60;13.95;;;6.60;99.90;;;;;;5034972;28;20040;-71
2022/03/13 01:02:38;;;;;;;22.77;14.30;;;6.30;99.90;;;;;;5051548;28;20064;-71
2022/03/13 01:05:04;;;;;;;18.67;13.65;;;6.30;99.90;;;;;;5035175;28;20044;-71
2022/03/13 01:07:30;;;;;;;23.10;14.68;;;6.30;99.90;;;;;;5035093;28;20047;-70
2022/03/13 01:09:55;;;;;;;19.67;14.68;;;6.30;99.90;;;;;;5051639;28;20045;-71
2022/03/13 01:12:22;;;;;;;18.42;13.95;;;6.80;99.90;;;;;;5034918;28;20041;-71
2022/03/13 01:14:48;;;;;;;20.00;14.52;;;6.30;99.90;;;;;;5034932;28;20403;-70
2022/03/13 01:17:17;;;;;;;18.52;13.43;;;6.20;99.90;;;;;;5034697;28;20048;-71
2022/03/13 01:19:43;;;;;;;22.65;14.68;;;6.20;99.90;;;;;;5051043;28;20044;-70
2022/03/13 01:22:11;;;;;;;19.40;14.38;;;6.20;99.90;;;;;;5034376;28;20048;-70
2022/03/13 01:24:43;;;;;;;19.20;14.27;;;6.20;99.90;;;;;;5034453;28;20033;-70
2022/03/13 01:27:09;;;;;;;19.80;14.10;;;6.20;99.90;;;;;;5050913;28;20128;-71
2022/03/13 01:29:35;;;;;;;22.73;15.18;;;6.20;99.90;;;;;;5034304;28;20041;-70
2022/03/13 01:32:01;;;;;;;20.17;14.43;;;6.40;99.90;;;;;;5034253;28;20515;-70
2022/03/13 01:34:36;;;;;;;20.25;14.43;;;6.20;99.90;;;;;;5050697;28;20045;-70
2022/03/13 01:37:04;;;;;;;23.02;15.48;;;6.20;99.90;;;;;;5051152;28;20132;-71
2022/03/13 01:39:30;;;;;;;22.08;14.18;;;6.20;99.90;;;;;;5034409;28;20037;-71
2022/03/13 01:41:56;;;;;;;23.23;15.73;;;6.20;99.90;;;;;;5051255;28;20044;-71
2022/03/13 01:44:22;;;;;;;24.48;16.30;;;6.20;99.90;;;;;;5033797;28;20037;-71
2022/03/13 01:46:48;;;;;;;20.48;15.07;;;6.10;99.90;;;;;;5050881;28;20048;-71
2022/03/13 01:49:15;;;;;;;22.27;15.98;;;6.10;99.90;;;;;;5051158;28;20431;-70
2022/03/13 01:51:40;;;;;;;26.63;16.88;;;6.80;99.90;;;;;;5050934;28;20052;-71
2022/03/13 01:54:11;;;;;;;23.45;16.17;;;6.20;99.90;;;;;;5050450;28;20045;-71
2022/03/13 01:56:39;;;;;;;22.95;15.85;;;6.60;99.90;;;;;;5050607;28;20063;-71
2022/03/13 01:59:06;;;;;;;20.10;14.30;;;6.20;99.90;;;;;;5051054;28;20374;-70
2022/03/13 02:01:33;;;;;;;20.88;14.70;;;6.20;99.90;;;;;;5034091;28;20068;-70
2022/03/13 02:03:59;;;;;;;21.73;15.63;;;6.30;99.90;;;;;;5050621;28;20044;-70
2022/03/13 02:06:26;;;;;;;24.02;15.57;;;7.00;99.90;;;;;;5050513;28;20037;-70
2022/03/13 02:08:54;;;;;;;24.88;15.38;;;6.40;99.90;;;;;;5050600;28;20048;-70
2022/03/13 02:11:24;;;;;;;19.50;15.43;;;6.50;99.90;;;;;;5050474;28;20098;-70
2022/03/13 02:13:52;;;;;;;22.00;15.00;;;6.50;99.90;;;;;;5050371;28;20045;-70
2022/03/13 02:16:20;;;;;;;20.48;15.05;;;6.50;99.90;;;;;;5050651;28;20179;-70
2022/03/13 02:18:52;;;;;;;21.38;14.75;;;6.60;99.90;;;;;;5050536;28;20068;-70
2022/03/13 02:21:22;;;;;;;19.85;14.40;;;6.60;99.90;;;;;;5050616;28;20041;-71
2022/03/13 02:23:48;;;;;;;22.37;13.33;;;6.70;99.90;;;;;;5050596;28;20112;-71
2022/03/13 02:26:13;;;;;;;24.23;14.60;;;6.70;99.90;;;;;;5050450;28;20047;-71
2022/03/13 02:28:51;;;;;;;19.90;14.02;;;6.70;99.90;;;;;;5033923;28;20041;-71
2022/03/13 02:31:25;;;;;;;20.20;15.32;;;6.70;99.90;;;;;;5050295;28;20051;-71
2022/03/13 02:33:53;;;;;;;22.30;15.32;;;6.70;99.90;;;;;;5050296;28;20052;-71
2022/03/13 02:36:31;;;;;;;20.63;15.30;;;6.70;99.90;;;;;;5050447;28;20037;-70
2022/03/13 02:39:04;;;;;;;20.13;14.38;;;6.70;99.90;;;;;;5049977;28;20041;-70
2022/03/13 02:41:31;;;;;;;22.58;15.15;;;6.80;99.90;;;;;;5033687;28;20066;-70
2022/03/13 02:43:57;;;;;;;20.88;14.73;;;6.60;99.90;;;;;;5050086;28;20048;-70
2022/03/13 02:46:45;;;;;;;22.63;14.63;;;7.10;99.90;;;;;;5050134;28;20044;-70
2022/03/13 02:49:10;;;;;;;22.85;15.38;;;6.60;99.90;;;;;;5050267;28;20044;-70
2022/03/13 02:51:36;;;;;;;23.08;14.98;;;6.60;99.90;;;;;;5033575;28;20104;-71
2022/03/13 02:54:02;;;;;;;19.02;13.80;;;6.60;99.90;;;;;;5049936;28;20032;-71
2022/03/13 02:56:28;;;;;;;20.50;15.73;;;6.60;99.90;;;;;;5053457;28;20048;-70
2022/03/13 02:58:54;;;;;;;20.35;14.95;;;6.60;99.90;;;;;;5053808;28;20043;-71
2022/03/13 03:01:21;;;;;;;19.52;15.02;;;6.60;99.90;;;;;;5053554;28;20061;-70
2022/03/13 03:03:48;;;;;;;20.48;15.15;;;6.60;99.90;;;;;;5053795;28;20056;-71
2022/03/13 03:06:14;;;;;;;21.60;14.70;;;6.60;99.90;;;;;;5053728;28;20040;-70
2022/03/13 03:08:40;;;;;;;18.02;14.10;;;6.60;99.90;;;;;;5053807;28;20056;-71
2022/03/13 03:11:06;;;;;;;20.83;13.95;;;6.60;99.90;;;;;;5053745;28;20053;-71
2022/03/13 03:13:32;;;;;;;21.52;14.32;;;7.10;99.90;;;;;;5053637;28;20040;-70
2022/03/13 03:15:57;;;;;;;20.88;14.82;;;6.50;99.90;;;;;;5053383;28;20397;-71
2022/03/13 03:18:23;;;;;;;18.58;14.40;;;6.60;99.90;;;;;;5036645;28;20040;-71
2022/03/13 03:20:49;;;;;;;20.55;13.23;;;6.50;99.90;;;;;;5053600;28;20485;-71
2022/03/13 03:23:15;;;;;;;18.48;13.32;;;6.40;99.90;;;;;;5053596;28;20045;-71
2022/03/13 03:25:41;;;;;;;18.92;13.88;;;6.40;99.90;;;;;;5036895;28;20480;-71
2022/03/13 03:28:07;;;;;;;21.73;14.70;;;6.40;99.90;;;;;;5053618;28;20051;-71
2022/03/13 03:30:33;;;;;;;19.60;13.65;;;6.40;99.90;;;;;;5036637;28;20404;-71
2022/03/13 03:33:04;;;;;;;22.83;14.57;;;6.40;99.90;;;;;;5036817;28;20041;-70
2022/03/13 03:35:30;;;;;;;20.80;14.70;;;6.30;99.90;;;;;;5036724;28;20048;-71
2022/03/13 03:37:56;;;;;;;19.95;14.18;;;6.30;99.90;;;;;;5052884;28;20044;-71
2022/03/13 03:40:24;;;;;;;22.52;15.27;;;6.30;99.90;;;;;;5052928;28;20352;-71
2022/03/13 03:42:49;;;;;;;19.80;14.32;;;6.20;99.90;;;;;;5053292;28;20119;-71
2022/03/13 03:45:18;;;;;;;19.02;13.90;;;6.20;99.90;;;;;;5053130;28;20406;-71
2022/03/13 03:47:45;;;;;;;18.95;13.40;;;6.20;99.90;;;;;;5052721;28;20044;-71
2022/03/13 03:50:11;;;;;;;21.58;15.07;;;6.10;99.90;;;;;;5053140;28;20442;-70
2022/03/13 03:52:36;;;;;;;19.50;14.48;;;6.10;99.90;;;;;;5052863;28;20129;-71
2022/03/13 03:55:02;;;;;;;18.27;14.02;;;6.00;99.90;;;;;;5036468;28;20466;-71
2022/03/13 03:57:28;;;;;;;19.70;14.10;;;6.00;99.90;;;;;;5052551;28;20098;-71
2022/03/13 03:59:54;;;;;;;22.88;14.57;;;6.40;99.90;;;;;;5036403;28;20037;-70
2022/03/13 04:02:19;;;;;;;20.50;14.43;;;6.00;99.90;;;;;;5035783;28;20060;-70
2022/03/13 04:04:46;;;;;;;21.33;14.02;;;5.70;99.90;;;;;;5035749;28;20047;-70
2022/03/13 04:07:13;;;;;;;20.33;14.15;;;5.70;99.90;;;;;;5035646;28;20041;-70
2022/03/13 04:09:39;;;;;;;22.55;15.02;;;5.70;99.90;;;;;;5036126;28;20460;-71
2022/03/13 04:12:07;;;;;;;21.23;14.30;;;5.70;99.90;;;;;;5052716;28;20488;-70
2022/03/13 04:14:33;;;;;;;20.50;14.25;;;5.60;99.90;;;;;;5019588;28;20041;-71
2022/03/13 04:16:58;;;;;;;21.20;13.52;;;5.60;99.90;;;;;;5035662;28;20119;-71
2022/03/13 04:19:26;;;;;;;19.85;14.25;;;6.00;99.90;;;;;;5053687;28;20120;-70
2022/03/13 04:21:51;;;;;;;17.67;12.70;;;5.60;99.90;;;;;;5035692;28;20073;-71
2022/03/13 04:24:17;;;;;;;19.42;13.98;;;5.50;99.90;;;;;;5052100;28;20079;-71
2022/03/13 04:26:44;;;;;;;17.67;12.90;;;5.50;99.90;;;;;;5052411;28;20492;-71
2022/03/13 04:29:10;;;;;;;20.17;13.98;;;5.40;99.90;;;;;;5035843;28;20094;-71
2022/03/13 04:31:38;;;;;;;18.85;13.88;;;5.40;99.90;;;;;;5052278;28;20489;-71
2022/03/13 04:34:04;;;;;;;18.92;14.05;;;5.40;99.90;;;;;;5052431;28;20045;-71
2022/03/13 04:36:33;;;;;;;21.63;14.20;;;5.40;99.90;;;;;;5052206;28;20049;-71
2022/03/13 04:39:01;;;;;;;22.10;14.52;;;5.60;99.90;;;;;;5051921;28;20049;-70
2022/03/13 04:41:27;;;;;;;21.33;14.07;;;5.30;99.90;;;;;;5051990;28;20138;-70
2022/03/13 04:43:53;;;;;;;21.65;14.43;;;5.90;99.90;;;;;;5052173;28;20048;-70
2022/03/13 04:46:19;;;;;;;20.27;14.40;;;4.60;99.90;;;;;;5052230;28;20053;-70
2022/03/13 04:48:45;;;;;;;19.27;14.10;;;5.60;99.90;;;;;;5051705;28;20047;-70
2022/03/13 04:51:11;;;;;;;20.00;15.00;;;5.30;99.90;;;;;;5035197;28;20045;-70
2022/03/13 04:53:37;;;;;;;19.98;14.43;;;5.30;99.90;;;;;;5051714;28;20044;-70
2022/03/13 04:56:03;;;;;;;18.85;14.00;;;5.20;99.90;;;;;;5051625;28;20454;-70
2022/03/13 04:58:29;;;;;;;19.40;15.00;;;5.20;99.90;;;;;;5051320;28;20041;-71
2022/03/13 05:00:54;;;;;;;19.45;13.48;;;5.70;99.90;;;;;;5051480;28;20067;-71
2022/03/13 05:03:20;;;;;;;19.33;14.00;;;5.10;99.90;;;;;;5051172;28;20095;-71
2022/03/13 05:05:46;;;;;;;21.30;14.18;;;5.00;99.90;;;;;;5034543;28;20041;-70
2022/03/13 05:08:15;;;;;;;18.83;13.15;;;5.00;99.90;;;;;;5051313;28;20048;-70
2022/03/13 05:10:43;;;;;;;20.92;14.02;;;4.90;99.90;;;;;;5051088;28;20052;-70
2022/03/13 05:13:14;;;;;;;20.05;14.10;;;4.90;99.90;;;;;;5051255;28;20082;-70
2022/03/13 05:15:41;;;;;;;19.33;14.15;;;4.90;99.90;;;;;;5051335;28;20090;-71
2022/03/13 05:18:07;;;;;;;20.55;13.98;;;4.80;99.90;;;;;;5051067;28;20049;-70
2022/03/13 05:20:36;;;;;;;22.50;14.38;;;4.80;99.90;;;;;;5051032;28;20071;-70
2022/03/13 05:23:04;;;;;;;19.48;13.70;;;4.80;99.90;;;;;;5051280;28;20076;-71
2022/03/13 05:25:31;;;;;;;19.90;14.00;;;4.70;99.90;;;;;;5050967;28;20048;-70
2022/03/13 05:27:57;;;;;;;20.65;13.32;;;4.70;99.90;;;;;;5052193;28;20048;-70
2022/03/13 05:30:24;;;;;;;18.73;13.27;;;4.70;99.90;;;;;;5051488;28;20448;-70
2022/03/13 05:32:49;;;;;;;20.02;14.23;;;4.70;99.90;;;;;;5051120;28;20492;-70
2022/03/13 05:35:16;;;;;;;17.13;12.57;;;4.60;99.90;;;;;;5050773;28;20055;-70
2022/03/13 05:37:43;;;;;;;19.98;13.70;;;4.60;99.90;;;;;;5051178;28;20132;-69
2022/03/13 05:40:14;;;;;;;22.08;13.48;;;4.70;99.90;;;;;;5050729;28;20124;-71
2022/03/13 05:42:45;;;;;;;20.70;13.88;;;4.60;99.90;;;;;;5050851;28;20040;-71
2022/03/13 05:45:16;;;;;;;19.33;13.25;;;4.60;99.90;;;;;;5051279;28;20033;-70
2022/03/13 05:47:44;;;;;;;20.35;14.13;;;4.60;99.90;;;;;;5050886;28;20053;-70
2022/03/13 05:50:09;;;;;;;19.90;12.93;;;4.60;99.90;;;;;;5050988;28;20133;-70
2022/03/13 05:52:35;;;;;;;19.38;13.20;;;4.70;99.90;;;;;;5034232;28;20547;-71
2022/03/13 05:55:01;;;;;;;18.63;12.40;;;4.70;99.90;;;;;;5050718;28;20045;-70
2022/03/13 05:57:27;;;;;;;20.35;12.65;;;4.70;99.90;;;;;;5050447;28;20047;-70
2022/03/13 05:59:52;;;;;;;21.25;13.38;;;5.30;99.90;;;;;;5017657;28;20095;-70
2022/03/13 06:02:22;;;;;;;18.77;12.75;;;5.30;99.90;;;;;;5033876;28;20049;-70
2022/03/13 06:04:48;;;;;;;22.13;13.95;;;4.90;99.90;;;;;;5050699;28;20086;-69
2022/03/13 06:07:14;;;;;;;17.95;12.27;;;4.80;99.90;;;;;;5050736;28;20042;-71
2022/03/13 06:09:40;;;;;;;19.10;12.60;;;4.80;99.90;;;;;;5050415;28;20033;-70
2022/03/13 06:12:08;;;;;;;20.65;12.10;;;4.80;99.90;;;;;;5034120;28;20074;-70
2022/03/13 06:14:34;;;;;;;22.13;12.75;;;4.90;99.90;;;;;;5017617;28;20045;-71
2022/03/13 06:17:00;;;;;;;18.88;13.23;;;4.80;99.90;;;;;;5050337;28;20131;-70
2022/03/13 06:19:25;;;;;;;23.40;12.85;;;4.80;99.90;;;;;;5033869;28;20051;-70
2022/03/13 06:21:51;;;;;;;18.38;11.98;;;5.10;99.90;;;;;;5034004;28;20435;-71
2022/03/13 06:24:18;;;;;;;18.58;12.95;;;4.80;99.90;;;;;;5050249;28;20484;-70
2022/03/13 06:26:44;;;;;;;17.15;11.43;;;4.80;99.90;;;;;;5050201;28;20106;-71
2022/03/13 06:29:14;;;;;;;21.98;14.65;;;4.80;99.90;;;;;;5035080;28;20124;-70
2022/03/13 06:31:40;;;;;;;19.27;13.00;;;4.80;99.90;;;;;;5054469;28;20040;-71
2022/03/13 06:34:07;;;;;;;18.48;12.95;;;4.80;99.90;;;;;;5037753;28;20083;-71
2022/03/13 06:36:34;;;;;;;18.02;12.73;;;4.80;99.90;;;;;;5054125;28;20071;-71
2022/03/13 06:39:00;;;;;;;20.52;14.20;;;4.90;99.90;;;;;;5054049;28;20106;-71
2022/03/13 06:41:27;;;;;;;18.67;13.18;;;5.10;99.90;;;;;;5053996;28;20052;-70
2022/03/13 06:43:53;;;;;;;19.40;13.70;;;4.90;99.90;;;;;;5037648;28;20511;-71
2022/03/13 06:46:18;;;;;;;20.17;13.07;;;5.00;99.90;;;;;;5054013;28;20037;-71
2022/03/13 06:48:44;;;;;;;20.00;13.35;;;5.00;99.90;;;;;;5053956;28;20041;-71
2022/03/13 06:51:10;;;;;;;18.08;12.55;;;5.00;99.90;;;;;;5053996;28;20048;-70
2022/03/13 06:53:36;;;;;;;18.50;13.32;;;5.10;99.90;;;;;;5037838;28;20044;-71
2022/03/13 06:56:03;;;;;;;18.77;12.90;;;5.10;99.90;;;;;;5054413;28;20049;-70
2022/03/13 06:58:28;;;;;;;17.38;12.40;;;5.10;99.90;;;;;;5053798;28;20037;-70
2022/03/13 07:00:54;;;;;;;17.25;12.75;;;5.30;99.90;;;;;;5053811;28;20049;-71
2022/03/13 07:03:20;;;;;;;18.55;12.73;;;5.20;99.90;;;;;;5053660;28;20057;-71
2022/03/13 07:05:46;;;;;;;24.70;13.75;;;5.10;99.90;;;;;;5020521;28;20084;-72
2022/03/13 07:08:13;;;;;;;18.45;12.60;;;5.00;99.90;;;;;;5037232;28;20064;-71
2022/03/13 07:10:39;;;;;;;19.60;12.55;;;5.20;99.90;;;;;;5037127;28;20128;-71
2022/03/13 07:13:05;;;;;;;22.83;13.85;;;5.20;99.90;;;;;;5037168;28;20059;-70
2022/03/13 07:15:31;;;;;;;19.25;12.57;;;5.10;99.90;;;;;;5053527;28;20415;-71
2022/03/13 07:17:58;;;;;;;22.30;14.20;;;5.10;99.90;;;;;;5004379;28;20049;-71
2022/03/13 07:20:24;;;;;;;18.58;12.60;;;5.20;99.90;;;;;;5053562;28;20392;-71
2022/03/13 07:22:50;;;;;;;19.48;13.15;;;5.30;99.90;;;;;;5053375;28;20037;-71
2022/03/13 07:25:16;;;;;;;22.70;13.13;;;5.30;99.90;;;;;;5020326;28;20064;-71
2022/03/13 07:27:43;;;;;;;19.27;13.18;;;5.40;99.90;;;;;;5037055;28;20056;-71
2022/03/13 07:30:14;;;;;;;17.60;13.18;;;5.60;99.90;;;;;;5053600;28;20048;-72
2022/03/13 07:32:41;;;;;;;18.08;12.68;;;5.50;99.90;;;;;;5036840;28;20080;-72
2022/03/13 07:35:11;;;;;;;18.20;12.98;;;5.60;99.90;;;;;;5037252;28;20099;-72
2022/03/13 07:37:37;;;;;;;18.15;12.13;;;5.60;99.90;;;;;;5036925;28;20048;-72
2022/03/13 07:40:03;;;;;;;18.38;12.45;;;5.70;99.90;;;;;;5020233;28;20211;-71
2022/03/13 07:42:29;;;;;;;21.27;12.77;;;5.80;99.90;;;;;;5052919;28;20044;-72
2022/03/13 07:44:55;;;;;;;20.92;13.43;;;5.90;99.90;;;;;;5053053;28;20044;-71
2022/03/13 07:47:20;;;;;;;18.30;13.07;;;5.90;99.90;;;;;;5053411;28;20067;-72
2022/03/13 07:49:46;;;;;;;18.77;12.23;;;6.00;99.90;;;;;;5053678;28;20051;-72
2022/03/13 07:52:12;;;;;;;17.73;13.15;;;6.20;99.90;;;;;;5053314;28;20053;-72
2022/03/13 07:54:38;;;;;;;18.70;11.63;;;6.20;99.90;;;;;;5053011;28;20124;-72
2022/03/13 07:57:04;;;;;;;17.33;12.05;;;6.40;99.90;;;;;;5036383;28;20124;-72
2022/03/13 07:59:30;;;;;;;17.88;11.80;;;6.40;99.90;;;;;;5036816;28;20413;-71
2022/03/13 08:01:55;;;;;;;18.75;12.45;;;6.50;99.90;;;;;;5036211;28;20428;-72
2022/03/13 08:04:21;;;;;;;18.75;11.23;;;6.60;99.90;;;;;;5052892;28;20067;-71
2022/03/13 08:06:47;;;;;;;19.50;12.00;;;7.40;99.90;;;;;;5052873;28;20080;-73
2022/03/13 08:09:13;;;;;;;18.65;11.27;;;6.70;99.90;;;;;;5036610;28;20040;-72
2022/03/13 08:11:39;;;;;;;17.58;11.63;;;6.80;99.50;;;;;;5052869;28;20044;-73
2022/03/13 08:14:07;;;;;;;16.13;11.20;;;7.10;99.40;;;;;;5052748;28;20051;-73
2022/03/13 08:16:33;;;;;;;15.57;10.07;;;6.90;98.50;;;;;;5020398;28;20110;-71
2022/03/13 08:18:59;;;;;;;18.20;11.68;;;7.10;99.00;;;;;;5036043;28;20047;-71
2022/03/13 08:21:26;;;;;;;15.00;10.55;;;7.20;97.10;;;;;;5052508;28;20049;-72
2022/03/13 08:23:52;;;;;;;19.05;11.30;;;7.30;97.90;;;;;;5019498;28;20045;-73
2022/03/13 08:26:19;;;;;;;15.63;10.90;;;7.40;96.90;;;;;;5052538;28;20077;-75
2022/03/13 08:28:44;;;;;;;17.90;11.15;;;8.30;97.30;;;;;;5052655;28;20048;-74
2022/03/13 08:31:11;;;;;;;18.90;11.73;;;7.50;96.80;;;;;;5036123;28;20078;-71
2022/03/13 08:33:36;;;;;;;16.23;12.00;;;7.90;96.90;;;;;;5035583;28;20045;-73
2022/03/13 08:36:03;;;;;;;15.05;10.50;;;7.60;96.80;;;;;;5052444;28;20087;-72
2022/03/13 08:38:28;;;;;;;15.90;11.18;;;7.50;96.40;;;;;;5051815;28;20135;-72
2022/03/13 08:40:54;;;;;;;13.13;10.77;;;7.50;96.50;;;;;;5052556;28;20116;-72
2022/03/13 08:43:21;;;;;;;18.60;11.30;;;7.60;97.00;;;;;;5052323;28;20089;-73
2022/03/13 08:45:47;;;;;;;18.00;11.40;;;7.70;96.50;;;;;;5051786;28;20048;-73
2022/03/13 08:48:16;;;;;;;15.73;10.90;;;7.70;96.00;;;;;;5035522;28;20567;-72
2022/03/13 08:50:41;;;;;;;15.85;11.00;;;7.80;96.40;;;;;;5051865;28;20484;-72
2022/03/13 08:53:07;;;;;;;16.15;11.23;;;8.00;96.50;;;;;;5017895;28;20186;-73
2022/03/13 08:55:33;;;;;;;17.60;11.18;;;8.10;95.50;;;;;;5051946;28;20043;-72
2022/03/13 08:57:59;;;;;;;17.05;11.75;;;8.30;95.40;;;;;;5051431;28;20049;-72
2022/03/13 09:00:25;;;;;;;20.88;13.73;;;8.50;95.10;;;;;;5035198;28;20037;-72
2022/03/13 09:02:53;;;;;;;16.67;11.55;;;8.40;95.70;;;;;;5051479;28;20492;-73
2022/03/13 09:05:20;;;;;;;15.95;11.20;;;8.80;95.20;;;;;;5051479;28;20103;-71
2022/03/13 09:07:46;;;;;;;16.92;11.63;;;8.90;94.60;;;;;;5051672;28;20049;-73
2022/03/13 09:10:13;;;;;;;16.42;10.98;;;9.50;95.00;;;;;;5051851;28;20526;-72
2022/03/13 09:12:39;;;;;;;17.48;11.88;;;8.90;94.40;;;;;;5051300;28;20037;-73
2022/03/13 09:15:11;;;;;;;14.88;10.73;;;9.00;93.50;;;;;;5149129;27;1262919;-71
2022/03/13 09:17:38;;;;;;;17.95;10.82;;;9.50;93.70;;;;;;5152672;27;20102;-73
2022/03/13 09:20:04;;;;;;;17.33;11.10;;;9.20;93.20;;;;;;5153255;27;20050;-73
2022/03/13 09:22:30;;;;;;;15.75;10.95;;;9.40;93.00;;;;;;5135962;27;20050;-72
2022/03/13 09:25:00;;;;;;;16.40;10.13;;;9.50;92.50;;;;;;5136023;27;20129;-72
2022/03/13 09:27:27;;;;;;;14.43;10.63;;;9.70;92.30;;;;;;5152834;27;20053;-72
2022/03/13 09:29:57;;;;;;;14.13;10.85;;;9.80;92.30;;;;;;5153112;27;20042;-72
2022/03/13 09:32:27;;;;;;;19.60;11.95;;;9.90;92.40;;;;;;5152817;27;20046;-71
2022/03/13 09:34:54;;;;;;;14.82;10.25;;;10.00;92.20;;;;;;5152691;27;20484;-72
2022/03/13 09:37:20;;;;;;;15.32;11.23;;;10.30;90.90;;;;;;5152526;27;20035;-72
2022/03/13 09:39:46;;;;;;;17.17;11.10;;;10.30;91.00;;;;;;5118552;27;20481;-74
2022/03/13 09:42:12;;;;;;;15.98;10.63;;;10.20;91.30;;;;;;5152550;27;20100;-72
2022/03/13 09:44:38;;;;;;;19.65;12.43;;;10.40;90.90;;;;;;5152436;27;20493;-74
2022/03/13 09:47:05;;;;;;;16.92;12.10;;;10.50;90.90;;;;;;5135132;27;20126;-71
2022/03/13 09:49:32;;;;;;;14.93;10.75;;;10.70;90.90;;;;;;5134882;27;20083;-75
2022/03/13 09:51:59;;;;;;;16.52;11.25;;;;;;;;;;5117970;27;20064;-73
2022/03/13 09:54:25;;;;;;;18.63;11.80;;;11.10;99.90;;;;;;5135124;27;20087;-74
2022/03/13 09:56:50;;;;;;;15.07;11.02;;;11.50;99.80;;;;;;5135059;27;20038;-73
2022/03/13 09:59:16;;;;;;;16.27;11.38;;;11.20;90.60;;;;;;5117979;27;20035;-73
2022/03/13 10:01:42;;;;;;;16.25;10.88;;;;;;;;;;5134920;27;20042;-73
2022/03/13 10:04:08;;;;;;;15.50;10.18;;;;;;;;;;5134985;27;20515;-71
2022/03/13 10:06:53;;;;;;;15.50;11.25;;;;;;;;;;5118090;27;20132;-71
2022/03/13 10:09:27;;;;;;;15.80;11.27;;;11.90;99.90;;;;;;5170861;27;20495;-72
2022/03/13 10:12:09;;;;;;;15.93;10.95;;;12.00;94.20;;;;;;5135324;27;20560;-72
2022/03/13 10:14:39;;;;;;;17.45;10.88;;;12.10;86.70;;;;;;5151592;27;20042;-72
2022/03/13 10:17:06;;;;;;;15.85;10.18;;;12.30;86.90;;;;;;5152276;27;20442;-72
2022/03/13 10:19:32;;;;;;;16.58;11.57;;;12.30;86.60;;;;;;5151727;27;20096;-72
2022/03/13 10:22:08;;;;;;;14.60;10.75;;;12.40;85.90;;;;;;5152182;27;20512;-72
2022/03/13 10:24:44;;;;;;;15.63;11.13;;;12.30;85.00;;;;;;5149629;27;20129;-72
2022/03/13 10:27:11;;;;;;;13.40;10.18;;;12.30;86.60;;;;;;5120801;27;20042;-72
2022/03/13 10:29:37;;;;;;;14.70;11.40;;;12.30;86.30;;;;;;5120596;27;20087;-70
2022/03/13 10:32:05;;;;;;;14.63;10.82;;;12.30;84.60;;;;;;5120621;27;20129;-72
2022/03/13 10:34:32;;;;;;;16.70;10.95;;;12.20;85.50;;;;;;5137647;27;20095;-72
2022/03/13 10:36:58;;;;;;;13.43;10.60;;;12.30;84.10;;;;;;5137440;27;20039;-72
2022/03/13 10:39:24;;;;;;;16.13;11.00;;;12.40;85.70;;;;;;5120510;27;20095;-71
2022/03/13 10:42:02;;;;;;;16.77;11.90;;;12.50;84.40;;;;;;5137523;27;20035;-73
2022/03/13 10:44:34;;;;;;;14.85;11.10;;;12.70;85.00;;;;;;5122016;27;20532;-72
2022/03/13 10:47:08;;;;;;;15.85;11.48;;;12.70;83.70;;;;;;5137892;27;20039;-73
2022/03/13 10:49:44;;;;;;;15.95;11.35;;;12.50;83.70;;;;;;5137707;27;20618;-73
2022/03/13 10:52:25;;;;;;;16.30;11.93;;;12.50;83.40;;;;;;5137385;27;20065;-73
2022/03/13 10:54:55;;;;;;;15.68;11.25;;;12.60;83.90;;;;;;5137341;27;20070;-73
2022/03/13 10:57:21;;;;;;;15.65;11.50;;;12.70;81.90;;;;;;5120289;27;20030;-72
2022/03/13 11:00:09;;;;;;;17.98;11.98;;;12.70;82.00;;;;;;5103144;27;20031;-73
2022/03/13 11:02:35;;;;;;;16.80;10.93;;;12.80;82.90;;;;;;5137561;27;20075;-73
2022/03/13 11:05:01;;;;;;;15.65;12.20;;;13.00;83.90;;;;;;5120143;27;20445;-73
2022/03/13 11:07:27;;;;;;;17.00;11.40;;;12.90;85.00;;;;;;5137348;27;20062;-73
2022/03/13 11:09:54;;;;;;;17.35;10.77;;;12.90;84.00;;;;;;5137094;27;20053;-73
2022/03/13 11:12:20;;;;;;;16.48;11.45;;;13.00;83.40;;;;;;5137015;27;20087;-74
2022/03/13 11:14:52;;;;;;;15.43;11.18;;;13.00;84.00;;;;;;5136798;27;20409;-73
2022/03/13 11:17:20;;;;;;;15.13;10.98;;;13.00;82.20;;;;;;5103216;27;20078;-73
2022/03/13 11:19:51;;;;;;;17.70;11.10;;;13.00;83.40;;;;;;5136986;27;20046;-74
2022/03/13 11:22:21;;;;;;;15.07;11.15;;;13.00;81.00;;;;;;5137055;27;20481;-72
2022/03/13 11:24:48;;;;;;;16.92;11.00;;;13.10;82.60;;;;;;5136633;27;20042;-72
2022/03/13 11:27:15;;;;;;;16.17;11.93;;;13.30;82.70;;;;;;5136576;27;20125;-73
2022/03/13 11:29:53;;;;;;;18.00;12.20;;;13.40;80.50;;;;;;5119492;27;20088;-74
2022/03/13 11:32:28;;;;;;;15.25;11.30;;;13.50;82.60;;;;;;5136652;27;20053;-74
2022/03/13 11:35:18;;;;;;;14.77;11.60;;;13.80;84.00;;;;;;5136562;27;20095;-73
2022/03/13 11:38:17;;;;;;;15.20;10.75;;;14.00;82.30;;;;;;5118501;27;20062;-73
2022/03/13 11:40:43;;;;;;;16.23;12.05;;;14.20;81.10;;;;;;5136174;27;20038;-73
2022/03/13 11:43:14;;;;;;;15.52;11.05;;;14.30;80.90;;;;;;5136470;27;20041;-72
2022/03/13 11:46:00;;;;;;;15.40;11.00;;;14.20;78.40;;;;;;5136311;27;20043;-73
2022/03/13 11:48:29;;;;;;;16.15;11.00;;;14.50;79.00;;;;;;5118655;27;20057;-75
2022/03/13 11:51:00;;;;;;;16.33;12.07;;;14.60;78.90;;;;;;5119264;27;20127;-72
2022/03/13 11:53:27;;;;;;;;;;;14.80;78.60;;;;;;5102561;27;20046;-74
2022/03/13 11:56:21;;;;;;;16.33;11.50;;;15.10;78.90;;;;;;5136005;27;19995;-73
2022/03/13 11:59:15;;;;;;;14.52;10.90;;;15.30;76.70;;;;;;5118900;27;20043;-73
2022/03/13 12:01:41;;;;;;;16.95;12.15;;;15.60;79.80;;;;;;5133313;27;20447;-72
2022/03/13 12:04:10;;;;;;;14.70;11.15;;;15.80;89.80;;;;;;5085520;27;20374;-74
2022/03/13 12:06:39;;;;;;;17.50;12.25;;;15.90;86.20;;;;;;5118685;27;20042;-72
2022/03/13 12:09:11;;;;;;;14.05;11.57;;;16.20;80.60;;;;;;5135938;27;20045;-73
2022/03/13 12:11:38;;;;;;;13.63;11.38;;;16.40;73.30;;;;;;5135967;27;20183;-74
2022/03/13 12:14:09;;;;;;;16.00;11.07;;;16.40;74.90;;;;;;5135514;27;20422;-73
2022/03/13 12:16:36;;;;;;;15.52;11.15;;;16.60;76.00;;;;;;5136083;27;20050;-75
2022/03/13 12:19:03;;;;;;;14.75;11.88;;;16.80;75.50;;;;;;5135846;27;20035;-77
2022/03/13 12:21:29;;;;;;;13.73;11.18;;;16.80;72.10;;;;;;5101750;27;20129;-74
2022/03/13 12:23:58;;;;;;;16.92;12.20;;;16.80;71.80;;;;;;5135653;27;20129;-74
2022/03/13 12:26:32;;;;;;;16.20;11.73;;;;;;;;;;5102184;27;20096;-76
2022/03/13 12:28:58;;;;;;;13.88;11.15;;;;;;;;;;5135485;27;20099;-75
2022/03/13 12:31:25;;;;;;;18.63;12.35;;;;;;;;;;5118664;27;20046;-77
2022/03/13 12:33:58;;;;;;;13.73;11.30;;;17.00;70.10;;;;;;5135366;27;20125;-74
2022/03/13 12:36:37;;;;;;;14.27;11.18;;;16.80;70.60;;;;;;5135769;27;20039;-71
2022/03/13 12:39:14;;;;;;;13.98;11.38;;;16.80;71.20;;;;;;5135640;27;20077;-74
2022/03/13 12:41:44;;;;;;;15.80;12.10;;;16.70;69.90;;;;;;5118516;27;20047;-72